createdAt,value
2023-03-10T00:00:39.943Z,8.57
2023-03-10T00:03:22.543Z,8.73
2023-03-10T00:05:49.409Z,7.93
2023-03-10T00:08:16.650Z,8.87
2023-03-10T00:10:43.601Z,8.50
2023-03-10T00:13:10.647Z,8.60
2023-03-10T00:15:37.540Z,7.83
2023-03-10T00:18:04.654Z,9.00
2023-03-10T00:20:31.381Z,8.27
2023-03-10T00:22:58.438Z,9.20
2023-03-10T00:25:25.217Z,8.23
2023-03-10T00:27:52.596Z,8.60
2023-03-10T00:30:19.718Z,8.80
2023-03-10T00:32:47.120Z,8.10
2023-03-10T00:35:13.959Z,9.03
2023-03-10T00:37:40.928Z,8.40
2023-03-10T00:40:15.358Z,9.60
2023-03-10T00:42:42.698Z,8.80
2023-03-10T00:45:10.200Z,9.67
2023-03-10T00:47:37.294Z,9.03
2023-03-10T00:50:04.690Z,9.67
2023-03-10T00:52:33.137Z,9.43
2023-03-10T00:55:00.213Z,10.17
2023-03-10T00:57:27.335Z,9.47
2023-03-10T00:59:54.342Z,10.63
2023-03-10T01:02:21.707Z,10.60
2023-03-10T01:04:48.717Z,10.17
2023-03-10T01:07:15.721Z,10.27
2023-03-10T01:09:43.013Z,10.57
2023-03-10T01:12:10.250Z,11.10
2023-03-10T01:14:38.057Z,10.23
2023-03-10T01:17:05.520Z,10.50
2023-03-10T01:19:32.663Z,12.17
2023-03-10T01:22:01.656Z,11.27
2023-03-10T01:24:28.485Z,10.57
2023-03-10T01:26:55.497Z,10.23
2023-03-10T01:29:22.339Z,11.53
2023-03-10T01:31:49.409Z,11.80
2023-03-10T01:34:16.168Z,11.47
2023-03-10T01:36:43.329Z,11.53
2023-03-10T01:39:10.125Z,11.80
2023-03-10T01:41:41.423Z,11.97
2023-03-10T01:44:20.184Z,11.50
2023-03-10T01:46:51.706Z,12.67
2023-03-10T01:49:27.735Z,12.33
2023-03-10T01:52:06.943Z,13.50
2023-03-10T01:54:53.043Z,13.47
2023-03-10T01:57:26.881Z,13.80
2023-03-10T01:59:55.328Z,12.97
2023-03-10T02:02:24.673Z,13.30
2023-03-10T02:04:54.084Z,14.17
2023-03-10T02:07:26.532Z,14.23
2023-03-10T02:09:55.974Z,15.73
2023-03-10T02:12:23.483Z,16.13
2023-03-10T02:14:53.080Z,16.70
2023-03-10T02:17:23.148Z,15.13
2023-03-10T02:20:08.859Z,15.20
2023-03-10T02:22:37.995Z,16.67
2023-03-10T02:25:32.403Z,15.73
2023-03-10T02:27:59.724Z,17.40
2023-03-10T02:30:34.500Z,17.47
2023-03-10T02:33:06.529Z,17.43
2023-03-10T02:35:33.740Z,17.50
2023-03-10T02:38:05.357Z,17.40
2023-03-10T02:40:36.734Z,17.23
2023-03-10T02:43:23.725Z,17.43
2023-03-10T02:46:03.495Z,18.47
2023-03-10T02:48:34.055Z,18.13
2023-03-10T02:51:04.541Z,17.63
2023-03-10T02:53:31.938Z,19.57
2023-03-10T02:56:00.146Z,17.53
2023-03-10T02:58:31.065Z,17.93
2023-03-10T03:00:58.174Z,17.40
2023-03-10T03:03:25.672Z,18.10
2023-03-10T03:05:52.656Z,17.97
2023-03-10T03:08:20.129Z,17.43
2023-03-10T03:10:48.144Z,19.80
2023-03-10T03:13:15.804Z,18.90
2023-03-10T03:15:42.828Z,18.03
2023-03-10T03:18:10.715Z,19.37
2023-03-10T03:20:40.223Z,20.07
2023-03-10T03:23:07.755Z,20.47
2023-03-10T03:25:37.143Z,19.07
2023-03-10T03:28:06.508Z,21.27
2023-03-10T03:30:33.695Z,20.77
2023-03-10T03:33:01.949Z,20.30
2023-03-10T03:35:32.333Z,21.20
2023-03-10T03:38:00.852Z,21.03
2023-03-10T03:40:29.509Z,23.30
2023-03-10T03:42:57.246Z,24.40
2023-03-10T03:45:30.186Z,22.47
2023-03-10T03:47:57.394Z,24.40
2023-03-10T03:50:26.962Z,24.60
2023-03-10T03:52:57.547Z,24.40
2023-03-10T03:55:29.160Z,23.77
2023-03-10T03:57:56.859Z,24.60
2023-03-10T04:00:25.418Z,25.03
2023-03-10T04:02:59.993Z,26.50
2023-03-10T04:05:30.163Z,24.43
2023-03-10T04:07:57.029Z,25.47
2023-03-10T04:10:26.989Z,24.83
2023-03-10T04:12:54.475Z,26.93
2023-03-10T04:15:23.326Z,26.23
2023-03-10T04:17:50.743Z,27.30
2023-03-10T04:20:18.296Z,27.43
2023-03-10T04:22:48.838Z,24.33
2023-03-10T04:25:16.881Z,25.87
2023-03-10T04:27:44.009Z,25.30
2023-03-10T04:30:15.116Z,24.37
2023-03-10T04:32:48.744Z,23.57
2023-03-10T04:35:16.722Z,24.90
2023-03-10T04:37:44.912Z,23.67
2023-03-10T04:40:14.440Z,24.50
2023-03-10T04:42:42.216Z,24.63
2023-03-10T04:45:10.192Z,24.73
2023-03-10T04:47:37.932Z,25.53
2023-03-10T04:50:06.197Z,25.10
2023-03-10T04:52:33.097Z,24.83
2023-03-10T04:55:00.452Z,25.67
2023-03-10T04:57:27.652Z,26.07
2023-03-10T04:59:55.256Z,24.93
2023-03-10T05:02:22.866Z,27.97
2023-03-10T05:04:50.901Z,25.30
2023-03-10T05:07:17.937Z,25.67
2023-03-10T05:09:48.328Z,25.57
2023-03-10T05:12:15.257Z,25.03
2023-03-10T05:14:42.449Z,25.23
2023-03-10T05:17:10.360Z,30.30
2023-03-10T05:19:37.800Z,26.43
2023-03-10T05:22:06.302Z,26.70
2023-03-10T05:24:34.898Z,26.87
2023-03-10T05:27:04.565Z,26.73
2023-03-10T05:29:32.752Z,27.03
2023-03-10T05:32:09.967Z,24.93
2023-03-10T05:34:39.789Z,26.53
2023-03-10T05:37:06.736Z,27.60
2023-03-10T05:39:34.614Z,26.77
2023-03-10T05:42:05.579Z,29.33
2023-03-10T05:44:34.731Z,27.77
2023-03-10T05:47:03.503Z,30.73
2023-03-10T05:49:30.894Z,30.07
2023-03-10T05:51:58.748Z,27.40
2023-03-10T05:54:25.962Z,27.90
2023-03-10T05:56:53.160Z,27.00
2023-03-10T05:59:23.096Z,27.93
2023-03-10T06:01:51.558Z,27.00
2023-03-10T06:04:18.777Z,26.70
2023-03-10T06:06:45.662Z,27.77
2023-03-10T06:09:12.751Z,25.20
2023-03-10T06:11:39.561Z,27.33
2023-03-10T06:14:06.625Z,27.73
2023-03-10T06:16:33.412Z,28.30
2023-03-10T06:19:00.484Z,26.17
2023-03-10T06:21:28.510Z,26.93
2023-03-10T06:23:55.621Z,26.07
2023-03-10T06:26:22.866Z,24.53
2023-03-10T06:28:49.916Z,23.57
2023-03-10T06:31:19.417Z,21.83
2023-03-10T06:33:46.597Z,20.90
2023-03-10T06:36:14.663Z,22.70
2023-03-10T06:38:42.220Z,22.90
2023-03-10T06:41:09.600Z,20.20
2023-03-10T06:43:36.980Z,21.47
2023-03-10T06:46:10.129Z,20.07
2023-03-10T06:48:38.642Z,20.53
2023-03-10T06:51:07.715Z,22.87
2023-03-10T06:53:34.979Z,22.53
2023-03-10T06:56:04.964Z,21.30
2023-03-10T06:58:33.386Z,22.40
2023-03-10T07:01:00.254Z,22.90
2023-03-10T07:03:29.029Z,21.77
2023-03-10T07:06:02.106Z,21.87
2023-03-10T07:08:30.158Z,20.00
2023-03-10T07:10:57.365Z,20.00
2023-03-10T07:13:24.680Z,20.23
2023-03-10T07:15:51.441Z,20.90
2023-03-10T07:18:27.764Z,18.80
2023-03-10T07:20:54.587Z,19.23
2023-03-10T07:23:22.588Z,18.67
2023-03-10T07:25:55.090Z,19.10
2023-03-10T07:28:23.525Z,17.30
2023-03-10T07:30:50.410Z,19.23
2023-03-10T07:33:17.609Z,18.60
2023-03-10T07:35:44.512Z,18.63
2023-03-10T07:38:11.769Z,20.47
2023-03-10T07:40:41.937Z,20.10
2023-03-10T07:43:09.025Z,20.43
2023-03-10T07:45:37.684Z,20.23
2023-03-10T07:48:05.038Z,20.27
2023-03-10T07:50:31.792Z,18.93
2023-03-10T07:52:58.735Z,21.17
2023-03-10T07:55:25.513Z,19.67
2023-03-10T07:57:52.514Z,18.67
2023-03-10T08:00:19.386Z,20.67
2023-03-10T08:02:46.388Z,18.77
2023-03-10T08:05:14.911Z,19.27
2023-03-10T08:07:42.168Z,19.03
2023-03-10T08:10:09.695Z,20.53
2023-03-10T08:12:36.945Z,19.10
2023-03-10T08:15:05.565Z,20.00
2023-03-10T08:17:33.538Z,19.13
2023-03-10T08:20:00.913Z,18.33
2023-03-10T08:22:28.709Z,22.67
2023-03-10T08:24:56.207Z,21.10
2023-03-10T08:27:23.497Z,17.10
2023-03-10T08:29:50.346Z,18.87
2023-03-10T08:32:18.281Z,18.70
2023-03-10T08:34:45.787Z,18.83
2023-03-10T08:37:12.807Z,19.50
2023-03-10T08:39:40.284Z,19.67
2023-03-10T08:42:12.996Z,20.40
2023-03-10T08:44:40.713Z,20.67
2023-03-10T08:47:08.201Z,18.77
2023-03-10T08:49:35.430Z,19.50
2023-03-10T08:52:02.655Z,19.60
2023-03-10T08:54:32.300Z,18.80
2023-03-10T08:56:59.959Z,18.53
2023-03-10T08:59:27.143Z,18.37
2023-03-10T09:01:54.636Z,18.90
2023-03-10T09:04:21.729Z,19.13
2023-03-10T09:06:48.839Z,23.57
2023-03-10T09:09:15.688Z,24.30
2023-03-10T09:11:43.468Z,21.23
2023-03-10T09:14:11.594Z,20.53
2023-03-10T09:16:40.276Z,20.07
2023-03-10T09:19:07.581Z,18.63
2023-03-10T09:21:35.004Z,20.17
2023-03-10T09:24:02.977Z,18.60
2023-03-10T09:26:30.175Z,18.70
2023-03-10T09:28:57.441Z,20.70
2023-03-10T09:31:28.321Z,18.40
2023-03-10T09:33:55.128Z,17.87
2023-03-10T09:36:22.418Z,20.03
2023-03-10T09:38:49.334Z,19.77
2023-03-10T09:41:47.343Z,19.03
2023-03-10T09:44:50.305Z,20.60
2023-03-10T09:47:48.983Z,19.83
2023-03-10T09:50:34.554Z,18.97
2023-03-10T09:53:07.411Z,20.83
2023-03-10T09:55:47.548Z,20.93
2023-03-10T09:58:30.733Z,20.27
2023-03-10T10:00:59.573Z,18.63
2023-03-10T10:03:52.164Z,18.30
2023-03-10T10:06:28.682Z,19.30
2023-03-10T10:09:05.508Z,19.37
2023-03-10T10:11:36.493Z,20.67
2023-03-10T10:14:13.134Z,19.83
2023-03-10T10:16:53.669Z,19.53
2023-03-10T10:19:26.420Z,20.67
2023-03-10T10:22:28.164Z,20.70
2023-03-10T10:25:10.562Z,26.50
2023-03-10T10:27:37.770Z,29.43
2023-03-10T10:30:39.979Z,27.27
2023-03-10T10:33:09.411Z,25.47
2023-03-10T10:35:39.288Z,21.37
2023-03-10T10:38:07.469Z,21.63
2023-03-10T10:40:46.004Z,23.77
2023-03-10T10:43:17.923Z,21.83
2023-03-10T10:45:54.147Z,20.43
2023-03-10T10:48:35.505Z,23.73
2023-03-10T10:51:02.616Z,22.13
2023-03-10T10:53:34.403Z,21.90
2023-03-10T10:56:05.688Z,21.00
2023-03-10T10:58:38.092Z,24.30
2023-03-10T11:01:08.128Z,23.13
2023-03-10T11:03:37.374Z,25.07
2023-03-10T11:06:27.185Z,23.20
2023-03-10T11:09:12.860Z,24.23
2023-03-10T11:11:56.438Z,25.13
2023-03-10T11:14:29.487Z,25.67
2023-03-10T11:17:05.186Z,26.90
2023-03-10T11:19:55.080Z,27.20
2023-03-10T11:22:33.260Z,27.20
2023-03-10T11:25:36.802Z,29.20
2023-03-10T11:28:09.453Z,25.93
2023-03-10T11:30:40.711Z,25.90
2023-03-10T11:33:10.654Z,27.83
2023-03-10T11:35:51.385Z,27.00
2023-03-10T11:38:42.424Z,26.60
2023-03-10T11:41:28.874Z,24.13
2023-03-10T11:44:07.115Z,23.77
2023-03-10T11:47:03.493Z,26.27
2023-03-10T11:49:36.634Z,26.83
2023-03-10T11:52:13.473Z,26.57
2023-03-10T11:54:51.058Z,30.77
2023-03-10T11:57:20.582Z,29.27
2023-03-10T11:59:55.403Z,27.63
2023-03-10T12:02:41.322Z,31.03
2023-03-10T12:05:24.209Z,39.10
2023-03-10T12:07:54.125Z,34.57
2023-03-10T12:10:23.003Z,28.80
2023-03-10T12:12:51.568Z,27.37
2023-03-10T12:15:19.126Z,28.77
2023-03-10T12:17:49.099Z,28.37
2023-03-10T12:20:19.162Z,25.73
2023-03-10T12:22:59.654Z,23.57
2023-03-10T12:25:29.803Z,24.03
2023-03-10T12:28:15.402Z,24.70
2023-03-10T12:30:59.924Z,27.47
2023-03-10T12:33:42.302Z,25.00
2023-03-10T12:36:32.679Z,25.47
2023-03-10T12:39:19.222Z,26.67
2023-03-10T12:41:56.288Z,26.33
2023-03-10T12:44:23.185Z,24.33
2023-03-10T12:47:00.701Z,24.10
2023-03-10T12:49:36.904Z,25.63
2023-03-10T12:52:06.748Z,25.13
2023-03-10T12:54:39.069Z,24.80
2023-03-10T12:57:16.971Z,24.53
2023-03-10T12:59:55.361Z,23.17
2023-03-10T13:02:36.184Z,23.67
2023-03-10T13:05:07.816Z,24.13
2023-03-10T13:07:35.470Z,27.57
2023-03-10T13:10:03.543Z,28.17
2023-03-10T13:12:44.605Z,29.43
2023-03-10T13:15:25.379Z,28.23
2023-03-10T13:17:55.271Z,30.77
2023-03-10T13:20:23.427Z,34.07
2023-03-10T13:22:54.537Z,31.80
2023-03-10T13:25:21.550Z,32.37
2023-03-10T13:27:48.750Z,34.63
2023-03-10T13:30:21.627Z,34.53
2023-03-10T13:32:53.427Z,34.70
2023-03-10T13:35:30.903Z,36.27
2023-03-10T13:38:21.313Z,36.33
2023-03-10T13:40:57.988Z,37.77
2023-03-10T13:43:27.734Z,36.30
2023-03-10T13:45:56.880Z,39.50
2023-03-10T13:48:26.290Z,38.37
2023-03-10T13:51:05.433Z,38.33
2023-03-10T13:53:32.545Z,37.70
2023-03-10T13:55:59.327Z,36.83
2023-03-10T13:58:26.587Z,39.07
2023-03-10T14:00:56.302Z,40.17
2023-03-10T14:03:23.402Z,38.80
2023-03-10T14:05:50.246Z,36.77
2023-03-10T14:08:28.820Z,37.20
2023-03-10T14:11:23.218Z,35.53
2023-03-10T14:13:50.328Z,37.40
2023-03-10T14:16:17.091Z,39.50
2023-03-10T14:18:44.274Z,42.33
2023-03-10T14:21:32.154Z,39.10
2023-03-10T14:24:04.392Z,42.40
2023-03-10T14:26:32.542Z,41.73
2023-03-10T14:29:09.132Z,40.47
2023-03-10T14:31:35.909Z,40.57
2023-03-10T14:34:03.466Z,46.27
2023-03-10T14:36:30.340Z,47.43
2023-03-10T14:38:57.355Z,45.67
2023-03-10T14:41:25.485Z,46.43
2023-03-10T14:43:52.627Z,45.70
2023-03-10T14:46:19.513Z,42.33
2023-03-10T14:48:46.749Z,44.23
2023-03-10T14:51:28.987Z,37.60
2023-03-10T14:54:01.534Z,37.60
2023-03-10T14:56:28.493Z,35.70
2023-03-10T14:58:56.702Z,35.80
2023-03-10T15:01:23.530Z,35.50
2023-03-10T15:03:50.653Z,37.77
2023-03-10T15:06:19.552Z,37.93
2023-03-10T15:08:46.649Z,36.67
2023-03-10T15:11:15.914Z,39.47
2023-03-10T15:13:44.561Z,43.33
2023-03-10T15:16:14.442Z,42.50
2023-03-10T15:18:41.604Z,45.00
2023-03-10T15:21:08.954Z,43.70
2023-03-10T15:23:36.097Z,48.57
2023-03-10T15:26:09.506Z,49.67
2023-03-10T15:28:37.398Z,47.77
2023-03-10T15:31:04.794Z,50.53
2023-03-10T15:33:32.676Z,47.53
2023-03-10T15:35:59.727Z,41.80
2023-03-10T15:38:26.934Z,43.23
2023-03-10T15:40:53.644Z,43.33
2023-03-10T15:43:20.733Z,45.80
2023-03-10T15:45:49.251Z,48.90
2023-03-10T15:48:17.138Z,49.00
2023-03-10T15:50:46.988Z,48.50
2023-03-10T15:53:14.481Z,45.03
2023-03-10T15:55:42.409Z,41.07
2023-03-10T15:58:11.444Z,42.57
2023-03-10T16:00:39.065Z,41.90
2023-03-10T16:03:06.530Z,39.93
2023-03-10T16:05:35.064Z,41.23
2023-03-10T16:08:06.095Z,43.17
2023-03-10T16:10:37.073Z,51.60
2023-03-10T16:13:04.267Z,43.80
2023-03-10T16:15:31.106Z,43.57
2023-03-10T16:17:58.269Z,39.87
2023-03-10T16:20:25.049Z,41.77
2023-03-10T16:22:52.007Z,42.30
2023-03-10T16:25:21.155Z,49.03
2023-03-10T16:27:48.218Z,46.03
2023-03-10T16:30:16.862Z,41.83
2023-03-10T16:32:46.115Z,41.90
2023-03-10T16:35:13.126Z,41.27
2023-03-10T16:37:40.183Z,40.17
2023-03-10T16:40:07.804Z,40.80
2023-03-10T16:42:36.694Z,41.00
2023-03-10T16:45:04.591Z,37.93
2023-03-10T16:47:32.106Z,38.50
2023-03-10T16:49:58.965Z,41.20
2023-03-10T16:52:26.087Z,43.37
2023-03-10T16:54:58.031Z,40.43
2023-03-10T16:57:25.141Z,42.53
2023-03-10T16:59:51.880Z,50.90
2023-03-10T17:02:18.882Z,46.47
2023-03-10T17:04:45.851Z,45.13
2023-03-10T17:07:14.115Z,47.37
2023-03-10T17:09:41.074Z,42.97
2023-03-10T17:12:08.286Z,38.13
2023-03-10T17:14:35.031Z,39.63
2023-03-10T17:17:02.243Z,41.20
2023-03-10T17:19:30.077Z,39.27
2023-03-10T17:21:58.628Z,49.77
2023-03-10T17:24:26.055Z,51.03
2023-03-10T17:26:53.490Z,47.80
2023-03-10T17:29:20.522Z,52.80
2023-03-10T17:31:50.533Z,52.17
2023-03-10T17:34:18.663Z,49.43
2023-03-10T17:36:46.711Z,41.90
2023-03-10T17:39:18.227Z,34.47
2023-03-10T17:41:45.746Z,35.37
2023-03-10T17:44:12.529Z,39.70
2023-03-10T17:46:41.024Z,40.60
2023-03-10T17:49:11.228Z,40.53
2023-03-10T17:51:41.309Z,41.40
2023-03-10T17:54:08.092Z,45.67
2023-03-10T17:56:35.249Z,48.77
2023-03-10T17:59:02.140Z,56.53
2023-03-10T18:01:30.914Z,46.83
2023-03-10T18:03:59.632Z,38.60
2023-03-10T18:06:29.530Z,39.33
2023-03-10T18:08:58.702Z,38.33
2023-03-10T18:11:26.920Z,40.93
2023-03-10T18:13:54.117Z,38.17
2023-03-10T18:16:26.814Z,40.47
2023-03-10T18:18:54.588Z,40.00
2023-03-10T18:21:22.405Z,42.60
2023-03-10T18:23:49.761Z,44.90
2023-03-10T18:26:19.713Z,44.83
2023-03-10T18:28:46.868Z,48.70
2023-03-10T18:31:19.580Z,46.23
2023-03-10T18:33:47.133Z,45.47
2023-03-10T18:36:14.891Z,47.70
2023-03-10T18:38:41.796Z,45.37
2023-03-10T18:41:09.226Z,44.37
2023-03-10T18:43:37.298Z,41.80
2023-03-10T18:46:04.728Z,43.37
2023-03-10T18:48:31.495Z,40.37
2023-03-10T18:50:59.571Z,41.73
2023-03-10T18:53:26.882Z,43.03
2023-03-10T18:55:54.179Z,40.40
2023-03-10T18:58:21.823Z,46.20
2023-03-10T19:00:49.536Z,43.97
2023-03-10T19:03:17.224Z,39.07
2023-03-10T19:05:44.814Z,36.23
2023-03-10T19:08:11.965Z,38.73
2023-03-10T19:10:39.548Z,41.50
2023-03-10T19:13:07.575Z,42.20
2023-03-10T19:15:37.304Z,44.47
2023-03-10T19:18:04.448Z,46.87
2023-03-10T19:20:31.673Z,44.53
2023-03-10T19:22:58.373Z,43.77
2023-03-10T19:25:25.390Z,43.40
2023-03-10T19:27:52.151Z,42.53
2023-03-10T19:30:20.190Z,42.03
2023-03-10T19:32:47.898Z,44.90
2023-03-10T19:35:16.125Z,50.30
2023-03-10T19:37:43.585Z,47.73
2023-03-10T19:40:15.948Z,44.83
2023-03-10T19:42:43.524Z,41.60
2023-03-10T19:45:16.047Z,33.93
2023-03-10T19:47:43.941Z,33.27
2023-03-10T19:50:16.985Z,32.03
2023-03-10T19:52:45.103Z,35.10
2023-03-10T19:55:19.755Z,32.57
2023-03-10T19:57:51.213Z,31.87
2023-03-10T20:00:25.666Z,31.20
2023-03-10T20:02:55.543Z,32.27
2023-03-10T20:05:25.467Z,32.97
2023-03-10T20:07:52.622Z,32.50
2023-03-10T20:10:20.073Z,31.23
2023-03-10T20:12:47.238Z,31.80
2023-03-10T20:15:14.780Z,33.47
2023-03-10T20:17:41.835Z,33.57
2023-03-10T20:20:12.391Z,32.73
2023-03-10T20:22:40.909Z,32.77
2023-03-10T20:25:10.107Z,32.27
2023-03-10T20:27:37.519Z,30.87
2023-03-10T20:30:07.358Z,30.90
2023-03-10T20:32:34.567Z,35.77
2023-03-10T20:35:02.581Z,44.13
2023-03-10T20:37:29.282Z,41.87
2023-03-10T20:39:56.332Z,48.90
2023-03-10T20:42:23.064Z,46.63
2023-03-10T20:44:50.067Z,42.57
2023-03-10T20:47:16.854Z,41.10
2023-03-10T20:49:45.658Z,37.40
2023-03-10T20:52:12.635Z,35.60
2023-03-10T20:54:39.894Z,34.60
2023-03-10T20:57:06.951Z,31.30
2023-03-10T20:59:34.276Z,31.97
2023-03-10T21:02:01.075Z,31.40
2023-03-10T21:04:28.566Z,35.30
2023-03-10T21:06:55.337Z,32.03
2023-03-10T21:09:22.418Z,35.97
2023-03-10T21:11:49.478Z,35.73
2023-03-10T21:14:16.940Z,35.03
2023-03-10T21:16:45.722Z,34.53
2023-03-10T21:19:12.922Z,33.37
2023-03-10T21:21:39.698Z,31.57
2023-03-10T21:24:07.046Z,32.57
2023-03-10T21:26:33.905Z,34.40
2023-03-10T21:29:00.965Z,35.07
2023-03-10T21:31:27.758Z,35.93
2023-03-10T21:33:54.924Z,35.77
2023-03-10T21:36:23.451Z,35.67
2023-03-10T21:38:52.644Z,35.20
2023-03-10T21:41:25.553Z,32.93
2023-03-10T21:43:54.213Z,34.83
2023-03-10T21:46:21.219Z,34.20
2023-03-10T21:48:48.467Z,34.23
2023-03-10T21:51:17.653Z,32.00
2023-03-10T21:53:44.819Z,31.57
2023-03-10T21:56:11.623Z,31.30
2023-03-10T21:58:38.690Z,34.30
2023-03-10T22:01:07.603Z,31.90
2023-03-10T22:03:35.351Z,32.43
2023-03-10T22:06:04.793Z,31.67
2023-03-10T22:08:33.661Z,31.90
2023-03-10T22:11:01.105Z,33.33
2023-03-10T22:13:28.581Z,33.17
2023-03-10T22:15:55.347Z,38.53
2023-03-10T22:18:22.469Z,37.33
2023-03-10T22:20:49.240Z,36.03
2023-03-10T22:23:16.395Z,30.57
2023-03-10T22:25:43.159Z,32.03
2023-03-10T22:28:10.194Z,30.57
2023-03-10T22:30:39.150Z,28.53
2023-03-10T22:33:06.968Z,29.70
2023-03-10T22:35:35.330Z,28.83
2023-03-10T22:38:03.289Z,29.07
2023-03-10T22:40:30.617Z,25.77
2023-03-10T22:42:58.375Z,25.80
2023-03-10T22:45:26.606Z,25.67
2023-03-10T22:47:57.452Z,24.23
2023-03-10T22:50:34.333Z,24.07
2023-03-10T22:53:03.657Z,24.57
2023-03-10T22:55:35.033Z,22.93
2023-03-10T22:58:07.162Z,23.67
2023-03-10T23:00:35.132Z,24.43
2023-03-10T23:03:04.719Z,25.87
2023-03-10T23:05:31.870Z,23.50
2023-03-10T23:07:59.195Z,22.67
2023-03-10T23:10:29.832Z,23.60
2023-03-10T23:12:59.506Z,23.47
2023-03-10T23:15:29.683Z,21.33
2023-03-10T23:17:57.181Z,22.03
2023-03-10T23:20:27.362Z,21.57
2023-03-10T23:22:56.157Z,22.83
2023-03-10T23:25:26.190Z,21.27
2023-03-10T23:27:53.434Z,21.90
2023-03-10T23:30:20.436Z,21.73
2023-03-10T23:32:49.945Z,22.67
2023-03-10T23:35:20.408Z,21.30
2023-03-10T23:37:47.535Z,21.97
2023-03-10T23:40:18.010Z,20.57
2023-03-10T23:42:45.936Z,20.43
2023-03-10T23:45:19.034Z,19.70
2023-03-10T23:47:46.704Z,19.53
2023-03-10T23:50:27.633Z,19.63
2023-03-10T23:52:55.514Z,19.83
2023-03-10T23:55:25.597Z,22.00
2023-03-10T23:57:53.029Z,21.37
